sensor_id;sensor_type;location;lat;lon;timestamp;P1;durP1;ratioP1;P2;durP2;ratioP2
8825;SDS011;4449;50.872;4.714;2022-09-12T00:02:24;6.13;;;5.53;;
8825;SDS011;4449;50.872;4.714;2022-09-12T00:04:52;6.40;;;5.80;;
8825;SDS011;4449;50.872;4.714;2022-09-12T00:07:20;8.47;;;5.47;;
8825;SDS011;4449;50.872;4.714;2022-09-12T00:09:49;6.87;;;6.10;;
8825;SDS011;4449;50.872;4.714;2022-09-12T00:12:17;6.10;;;5.50;;
8825;SDS011;4449;50.872;4.714;2022-09-12T00:14:45;5.43;;;4.97;;
8825;SDS011;4449;50.872;4.714;2022-09-12T00:17:12;6.97;;;5.30;;
8825;SDS011;4449;50.872;4.714;2022-09-12T00:19:40;6.20;;;5.30;;
8825;SDS011;4449;50.872;4.714;2022-09-12T00:22:07;6.33;;;5.63;;
8825;SDS011;4449;50.872;4.714;2022-09-12T00:24:35;5.67;;;5.17;;
8825;SDS011;4449;50.872;4.714;2022-09-12T00:27:06;5.30;;;4.90;;
8825;SDS011;4449;50.872;4.714;2022-09-12T00:29:34;5.33;;;4.93;;
8825;SDS011;4449;50.872;4.714;2022-09-12T00:32:02;5.40;;;4.90;;
8825;SDS011;4449;50.872;4.714;2022-09-12T00:34:30;5.27;;;4.77;;
8825;SDS011;4449;50.872;4.714;2022-09-12T00:36:57;4.93;;;4.53;;
8825;SDS011;4449;50.872;4.714;2022-09-12T00:39:25;5.40;;;4.93;;
8825;SDS011;4449;50.872;4.714;2022-09-12T00:41:53;6.03;;;5.40;;
8825;SDS011;4449;50.872;4.714;2022-09-12T00:47:11;5.73;;;5.23;;
8825;SDS011;4449;50.872;4.714;2022-09-12T00:49:42;5.37;;;4.87;;
8825;SDS011;4449;50.872;4.714;2022-09-12T00:52:12;4.90;;;4.50;;
8825;SDS011;4449;50.872;4.714;2022-09-12T00:54:42;6.00;;;5.50;;
8825;SDS011;4449;50.872;4.714;2022-09-12T00:57:11;6.60;;;4.70;;
8825;SDS011;4449;50.872;4.714;2022-09-12T00:59:40;5.10;;;4.60;;
8825;SDS011;4449;50.872;4.714;2022-09-12T01:02:11;7.43;;;5.33;;
8825;SDS011;4449;50.872;4.714;2022-09-12T01:04:39;5.70;;;5.13;;
8825;SDS011;4449;50.872;4.714;2022-09-12T01:07:07;5.63;;;5.13;;
8825;SDS011;4449;50.872;4.714;2022-09-12T01:09:35;6.30;;;5.70;;
8825;SDS011;4449;50.872;4.714;2022-09-12T01:12:04;6.27;;;5.53;;
8825;SDS011;4449;50.872;4.714;2022-09-12T01:14:32;8.50;;;6.07;;
8825;SDS011;4449;50.872;4.714;2022-09-12T01:17:01;6.20;;;5.57;;
8825;SDS011;4449;50.872;4.714;2022-09-12T01:19:39;6.77;;;6.10;;
8825;SDS011;4449;50.872;4.714;2022-09-12T01:22:19;6.13;;;5.60;;
8825;SDS011;4449;50.872;4.714;2022-09-12T01:24:51;5.50;;;5.13;;
8825;SDS011;4449;50.872;4.714;2022-09-12T01:27:29;7.50;;;6.03;;
8825;SDS011;4449;50.872;4.714;2022-09-12T01:33:00;8.73;;;6.73;;
8825;SDS011;4449;50.872;4.714;2022-09-12T01:35:34;7.13;;;5.70;;
8825;SDS011;4449;50.872;4.714;2022-09-12T01:38:07;6.37;;;5.30;;
8825;SDS011;4449;50.872;4.714;2022-09-12T01:40:38;6.10;;;5.17;;
8825;SDS011;4449;50.872;4.714;2022-09-12T01:43:10;8.17;;;5.57;;
8825;SDS011;4449;50.872;4.714;2022-09-12T01:45:44;8.20;;;5.20;;
8825;SDS011;4449;50.872;4.714;2022-09-12T01:48:15;7.33;;;6.20;;
8825;SDS011;4449;50.872;4.714;2022-09-12T01:50:46;7.03;;;6.13;;
8825;SDS011;4449;50.872;4.714;2022-09-12T01:53:18;6.97;;;6.23;;
8825;SDS011;4449;50.872;4.714;2022-09-12T01:55:49;7.43;;;6.43;;
8825;SDS011;4449;50.872;4.714;2022-09-12T01:58:18;8.10;;;6.20;;
8825;SDS011;4449;50.872;4.714;2022-09-12T02:00:55;8.50;;;6.70;;
8825;SDS011;4449;50.872;4.714;2022-09-12T02:03:28;7.57;;;6.73;;
8825;SDS011;4449;50.872;4.714;2022-09-12T02:05:59;8.50;;;6.87;;
8825;SDS011;4449;50.872;4.714;2022-09-12T02:08:29;7.07;;;6.37;;
8825;SDS011;4449;50.872;4.714;2022-09-12T02:10:59;9.77;;;6.80;;
8825;SDS011;4449;50.872;4.714;2022-09-12T02:13:30;7.90;;;6.67;;
8825;SDS011;4449;50.872;4.714;2022-09-12T02:16:00;8.87;;;6.23;;
8825;SDS011;4449;50.872;4.714;2022-09-12T02:18:32;8.47;;;6.47;;
8825;SDS011;4449;50.872;4.714;2022-09-12T02:21:00;6.70;;;6.00;;
8825;SDS011;4449;50.872;4.714;2022-09-12T02:23:31;6.97;;;5.83;;
8825;SDS011;4449;50.872;4.714;2022-09-12T02:26:01;7.70;;;6.90;;
8825;SDS011;4449;50.872;4.714;2022-09-12T02:28:30;8.70;;;7.77;;
8825;SDS011;4449;50.872;4.714;2022-09-12T02:31:00;10.50;;;7.47;;
8825;SDS011;4449;50.872;4.714;2022-09-12T02:33:33;7.60;;;6.87;;
8825;SDS011;4449;50.872;4.714;2022-09-12T02:36:05;12.13;;;7.47;;
8825;SDS011;4449;50.872;4.714;2022-09-12T02:38:40;7.77;;;6.93;;
8825;SDS011;4449;50.872;4.714;2022-09-12T02:41:10;9.67;;;7.07;;
8825;SDS011;4449;50.872;4.714;2022-09-12T02:43:38;9.63;;;7.43;;
8825;SDS011;4449;50.872;4.714;2022-09-12T02:46:07;9.50;;;7.90;;
8825;SDS011;4449;50.872;4.714;2022-09-12T02:48:38;10.53;;;8.23;;
8825;SDS011;4449;50.872;4.714;2022-09-12T02:51:08;14.57;;;7.47;;
8825;SDS011;4449;50.872;4.714;2022-09-12T02:53:39;11.27;;;8.47;;
8825;SDS011;4449;50.872;4.714;2022-09-12T02:56:07;9.50;;;7.57;;
8825;SDS011;4449;50.872;4.714;2022-09-12T02:58:37;11.00;;;8.47;;
8825;SDS011;4449;50.872;4.714;2022-09-12T03:01:07;9.87;;;8.47;;
8825;SDS011;4449;50.872;4.714;2022-09-12T03:03:45;10.57;;;8.17;;
8825;SDS011;4449;50.872;4.714;2022-09-12T03:06:16;9.60;;;8.17;;
8825;SDS011;4449;50.872;4.714;2022-09-12T03:08:56;12.53;;;8.00;;
8825;SDS011;4449;50.872;4.714;2022-09-12T03:11:39;10.73;;;8.50;;
8825;SDS011;4449;50.872;4.714;2022-09-12T03:14:14;12.17;;;8.90;;
8825;SDS011;4449;50.872;4.714;2022-09-12T03:16:46;10.70;;;7.87;;
8825;SDS011;4449;50.872;4.714;2022-09-12T03:19:21;14.37;;;8.33;;
8825;SDS011;4449;50.872;4.714;2022-09-12T03:21:53;12.93;;;8.70;;
8825;SDS011;4449;50.872;4.714;2022-09-12T03:24:25;11.00;;;8.30;;
8825;SDS011;4449;50.872;4.714;2022-09-12T03:26:57;10.60;;;8.30;;
8825;SDS011;4449;50.872;4.714;2022-09-12T03:29:27;9.77;;;8.10;;
8825;SDS011;4449;50.872;4.714;2022-09-12T03:31:56;8.93;;;7.87;;
8825;SDS011;4449;50.872;4.714;2022-09-12T03:34:26;13.17;;;8.40;;
8825;SDS011;4449;50.872;4.714;2022-09-12T03:36:54;10.37;;;8.13;;
8825;SDS011;4449;50.872;4.714;2022-09-12T03:39:22;10.83;;;8.90;;
8825;SDS011;4449;50.872;4.714;2022-09-12T03:41:50;11.47;;;8.57;;
8825;SDS011;4449;50.872;4.714;2022-09-12T03:44:18;11.17;;;9.20;;
8825;SDS011;4449;50.872;4.714;2022-09-12T03:46:46;10.00;;;8.50;;
8825;SDS011;4449;50.872;4.714;2022-09-12T03:49:14;12.07;;;9.23;;
8825;SDS011;4449;50.872;4.714;2022-09-12T03:51:43;10.83;;;8.37;;
8825;SDS011;4449;50.872;4.714;2022-09-12T03:54:11;12.63;;;9.70;;
8825;SDS011;4449;50.872;4.714;2022-09-12T03:56:39;14.37;;;8.90;;
8825;SDS011;4449;50.872;4.714;2022-09-12T03:59:06;13.37;;;9.57;;
8825;SDS011;4449;50.872;4.714;2022-09-12T04:01:34;13.03;;;9.40;;
8825;SDS011;4449;50.872;4.714;2022-09-12T04:04:03;12.17;;;9.63;;
8825;SDS011;4449;50.872;4.714;2022-09-12T04:06:30;15.77;;;9.47;;
8825;SDS011;4449;50.872;4.714;2022-09-12T04:09:00;11.57;;;8.50;;
8825;SDS011;4449;50.872;4.714;2022-09-12T04:11:27;10.40;;;8.70;;
8825;SDS011;4449;50.872;4.714;2022-09-12T04:13:56;12.93;;;10.33;;
8825;SDS011;4449;50.872;4.714;2022-09-12T04:16:24;13.03;;;9.27;;
8825;SDS011;4449;50.872;4.714;2022-09-12T04:18:52;10.83;;;9.07;;
8825;SDS011;4449;50.872;4.714;2022-09-12T04:21:20;12.90;;;9.27;;
8825;SDS011;4449;50.872;4.714;2022-09-12T04:23:48;13.73;;;9.37;;
8825;SDS011;4449;50.872;4.714;2022-09-12T04:26:18;11.23;;;8.70;;
8825;SDS011;4449;50.872;4.714;2022-09-12T04:28:46;14.77;;;9.27;;
8825;SDS011;4449;50.872;4.714;2022-09-12T04:31:15;13.43;;;10.00;;
8825;SDS011;4449;50.872;4.714;2022-09-12T04:33:45;12.43;;;10.07;;
8825;SDS011;4449;50.872;4.714;2022-09-12T04:36:16;12.23;;;10.17;;
8825;SDS011;4449;50.872;4.714;2022-09-12T04:38:44;11.07;;;8.90;;
8825;SDS011;4449;50.872;4.714;2022-09-12T04:41:12;14.17;;;9.60;;
8825;SDS011;4449;50.872;4.714;2022-09-12T04:43:42;15.97;;;9.53;;
8825;SDS011;4449;50.872;4.714;2022-09-12T04:46:11;14.73;;;10.33;;
8825;SDS011;4449;50.872;4.714;2022-09-12T04:48:40;12.40;;;9.47;;
8825;SDS011;4449;50.872;4.714;2022-09-12T04:51:08;15.70;;;10.43;;
8825;SDS011;4449;50.872;4.714;2022-09-12T04:53:37;12.80;;;10.43;;
8825;SDS011;4449;50.872;4.714;2022-09-12T04:56:06;14.40;;;9.87;;
8825;SDS011;4449;50.872;4.714;2022-09-12T04:58:34;15.90;;;10.20;;
8825;SDS011;4449;50.872;4.714;2022-09-12T05:01:04;18.00;;;10.67;;
8825;SDS011;4449;50.872;4.714;2022-09-12T05:03:32;12.90;;;9.60;;
8825;SDS011;4449;50.872;4.714;2022-09-12T05:06:03;14.83;;;9.00;;
8825;SDS011;4449;50.872;4.714;2022-09-12T05:08:32;16.73;;;10.63;;
8825;SDS011;4449;50.872;4.714;2022-09-12T05:11:00;14.97;;;9.80;;
8825;SDS011;4449;50.872;4.714;2022-09-12T05:13:30;13.93;;;8.77;;
8825;SDS011;4449;50.872;4.714;2022-09-12T05:15:58;13.57;;;9.83;;
8825;SDS011;4449;50.872;4.714;2022-09-12T05:18:27;13.03;;;9.80;;
8825;SDS011;4449;50.872;4.714;2022-09-12T05:20:57;14.07;;;9.23;;
8825;SDS011;4449;50.872;4.714;2022-09-12T05:23:25;12.50;;;9.70;;
8825;SDS011;4449;50.872;4.714;2022-09-12T05:25:54;11.00;;;8.97;;
8825;SDS011;4449;50.872;4.714;2022-09-12T05:28:22;12.40;;;9.13;;
8825;SDS011;4449;50.872;4.714;2022-09-12T05:30:58;12.70;;;8.97;;
8825;SDS011;4449;50.872;4.714;2022-09-12T05:33:27;15.87;;;9.63;;
8825;SDS011;4449;50.872;4.714;2022-09-12T05:35:55;12.90;;;9.07;;
8825;SDS011;4449;50.872;4.714;2022-09-12T05:38:23;12.73;;;8.13;;
8825;SDS011;4449;50.872;4.714;2022-09-12T05:40:53;12.47;;;9.37;;
8825;SDS011;4449;50.872;4.714;2022-09-12T05:43:21;11.40;;;9.37;;
8825;SDS011;4449;50.872;4.714;2022-09-12T05:45:49;13.13;;;9.03;;
8825;SDS011;4449;50.872;4.714;2022-09-12T05:48:16;14.87;;;9.73;;
8825;SDS011;4449;50.872;4.714;2022-09-12T05:50:45;11.00;;;9.60;;
8825;SDS011;4449;50.872;4.714;2022-09-12T05:53:13;11.30;;;7.87;;
8825;SDS011;4449;50.872;4.714;2022-09-12T05:55:41;11.27;;;8.60;;
8825;SDS011;4449;50.872;4.714;2022-09-12T05:58:09;11.13;;;8.10;;
8825;SDS011;4449;50.872;4.714;2022-09-12T06:00:37;13.40;;;8.80;;
8825;SDS011;4449;50.872;4.714;2022-09-12T06:03:04;9.13;;;8.27;;
8825;SDS011;4449;50.872;4.714;2022-09-12T06:05:33;9.10;;;7.97;;
8825;SDS011;4449;50.872;4.714;2022-09-12T06:08:02;10.20;;;6.33;;
8825;SDS011;4449;50.872;4.714;2022-09-12T06:10:30;9.70;;;7.43;;
8825;SDS011;4449;50.872;4.714;2022-09-12T06:12:59;8.00;;;6.53;;
8825;SDS011;4449;50.872;4.714;2022-09-12T06:15:28;8.33;;;6.57;;
8825;SDS011;4449;50.872;4.714;2022-09-12T06:17:56;9.50;;;6.67;;
8825;SDS011;4449;50.872;4.714;2022-09-12T06:20:24;10.67;;;6.87;;
8825;SDS011;4449;50.872;4.714;2022-09-12T06:22:52;10.63;;;6.97;;
8825;SDS011;4449;50.872;4.714;2022-09-12T06:25:21;10.60;;;6.83;;
8825;SDS011;4449;50.872;4.714;2022-09-12T06:27:49;9.23;;;7.60;;
8825;SDS011;4449;50.872;4.714;2022-09-12T06:30:17;14.33;;;6.60;;
8825;SDS011;4449;50.872;4.714;2022-09-12T06:32:47;10.93;;;7.47;;
8825;SDS011;4449;50.872;4.714;2022-09-12T06:35:17;7.47;;;6.37;;
8825;SDS011;4449;50.872;4.714;2022-09-12T06:37:45;11.00;;;6.97;;
8825;SDS011;4449;50.872;4.714;2022-09-12T06:40:13;10.57;;;8.47;;
8825;SDS011;4449;50.872;4.714;2022-09-12T06:42:42;9.97;;;8.13;;
8825;SDS011;4449;50.872;4.714;2022-09-12T06:45:10;11.10;;;7.20;;
8825;SDS011;4449;50.872;4.714;2022-09-12T06:47:40;12.70;;;8.23;;
8825;SDS011;4449;50.872;4.714;2022-09-12T06:50:08;9.87;;;7.53;;
8825;SDS011;4449;50.872;4.714;2022-09-12T06:52:36;12.23;;;7.17;;
8825;SDS011;4449;50.872;4.714;2022-09-12T06:55:04;10.67;;;7.50;;
8825;SDS011;4449;50.872;4.714;2022-09-12T06:57:32;10.87;;;7.93;;
8825;SDS011;4449;50.872;4.714;2022-09-12T07:00:05;13.70;;;8.13;;
8825;SDS011;4449;50.872;4.714;2022-09-12T07:02:32;15.20;;;8.63;;
8825;SDS011;4449;50.872;4.714;2022-09-12T07:05:03;12.37;;;8.57;;
8825;SDS011;4449;50.872;4.714;2022-09-12T07:07:31;11.33;;;8.23;;
8825;SDS011;4449;50.872;4.714;2022-09-12T07:10:00;10.87;;;8.43;;
8825;SDS011;4449;50.872;4.714;2022-09-12T07:12:28;15.10;;;9.43;;
8825;SDS011;4449;50.872;4.714;2022-09-12T07:14:56;12.40;;;8.70;;
8825;SDS011;4449;50.872;4.714;2022-09-12T07:17:25;11.20;;;8.40;;
8825;SDS011;4449;50.872;4.714;2022-09-12T07:19:53;12.83;;;9.50;;
8825;SDS011;4449;50.872;4.714;2022-09-12T07:22:20;11.17;;;8.30;;
8825;SDS011;4449;50.872;4.714;2022-09-12T07:24:48;12.27;;;8.87;;
8825;SDS011;4449;50.872;4.714;2022-09-12T07:27:17;11.47;;;8.60;;
8825;SDS011;4449;50.872;4.714;2022-09-12T07:29:45;9.33;;;8.27;;
8825;SDS011;4449;50.872;4.714;2022-09-12T07:32:13;12.27;;;8.50;;
8825;SDS011;4449;50.872;4.714;2022-09-12T07:34:42;12.33;;;7.77;;
8825;SDS011;4449;50.872;4.714;2022-09-12T07:37:09;13.93;;;7.43;;
8825;SDS011;4449;50.872;4.714;2022-09-12T07:39:37;9.07;;;7.47;;
8825;SDS011;4449;50.872;4.714;2022-09-12T07:42:05;10.17;;;7.53;;
8825;SDS011;4449;50.872;4.714;2022-09-12T07:44:33;10.30;;;8.17;;
8825;SDS011;4449;50.872;4.714;2022-09-12T07:47:00;8.80;;;7.83;;
8825;SDS011;4449;50.872;4.714;2022-09-12T07:49:28;5.57;;;5.03;;
8825;SDS011;4449;50.872;4.714;2022-09-12T07:51:57;10.40;;;7.33;;
8825;SDS011;4449;50.872;4.714;2022-09-12T07:54:25;8.13;;;7.33;;
8825;SDS011;4449;50.872;4.714;2022-09-12T07:56:53;8.93;;;7.70;;
8825;SDS011;4449;50.872;4.714;2022-09-12T07:59:21;8.43;;;6.30;;
8825;SDS011;4449;50.872;4.714;2022-09-12T08:01:48;7.63;;;6.83;;
8825;SDS011;4449;50.872;4.714;2022-09-12T08:11:17;7.37;;;6.67;;
8825;SDS011;4449;50.872;4.714;2022-09-12T08:13:45;6.00;;;5.40;;
8825;SDS011;4449;50.872;4.714;2022-09-12T08:16:15;6.67;;;6.07;;
8825;SDS011;4449;50.872;4.714;2022-09-12T08:18:43;6.17;;;5.67;;
8825;SDS011;4449;50.872;4.714;2022-09-12T08:21:12;8.30;;;5.47;;
8825;SDS011;4449;50.872;4.714;2022-09-12T08:23:40;5.30;;;4.80;;
8825;SDS011;4449;50.872;4.714;2022-09-12T08:26:08;4.43;;;4.00;;
8825;SDS011;4449;50.872;4.714;2022-09-12T08:28:38;4.95;;;4.57;;
8825;SDS011;4449;50.872;4.714;2022-09-12T08:31:06;5.05;;;4.65;;
8825;SDS011;4449;50.872;4.714;2022-09-12T08:33:34;8.80;;;5.18;;
8825;SDS011;4449;50.872;4.714;2022-09-12T08:36:03;4.50;;;4.15;;
8825;SDS011;4449;50.872;4.714;2022-09-12T08:38:31;4.78;;;4.38;;
8825;SDS011;4449;50.872;4.714;2022-09-12T08:41:01;4.93;;;4.53;;
8825;SDS011;4449;50.872;4.714;2022-09-12T08:43:32;4.35;;;3.97;;
8825;SDS011;4449;50.872;4.714;2022-09-12T08:46:06;4.20;;;3.47;;
8825;SDS011;4449;50.872;4.714;2022-09-12T08:48:37;3.88;;;3.58;;
8825;SDS011;4449;50.872;4.714;2022-09-12T08:51:06;3.75;;;3.53;;
8825;SDS011;4449;50.872;4.714;2022-09-12T08:53:38;4.55;;;3.60;;
8825;SDS011;4449;50.872;4.714;2022-09-12T08:56:06;3.70;;;3.50;;
8825;SDS011;4449;50.872;4.714;2022-09-12T08:58:38;3.00;;;2.80;;
8825;SDS011;4449;50.872;4.714;2022-09-12T09:01:07;4.00;;;3.17;;
8825;SDS011;4449;50.872;4.714;2022-09-12T09:03:53;3.33;;;3.13;;
8825;SDS011;4449;50.872;4.714;2022-09-12T09:06:25;2.77;;;2.67;;
8825;SDS011;4449;50.872;4.714;2022-09-12T09:08:56;3.67;;;2.77;;
8825;SDS011;4449;50.872;4.714;2022-09-12T09:11:34;2.60;;;2.50;;
8825;SDS011;4449;50.872;4.714;2022-09-12T09:14:09;2.43;;;2.33;;
8825;SDS011;4449;50.872;4.714;2022-09-12T09:16:59;2.60;;;2.40;;
8825;SDS011;4449;50.872;4.714;2022-09-12T09:19:28;2.57;;;2.37;;
8825;SDS011;4449;50.872;4.714;2022-09-12T09:21:58;2.40;;;2.30;;
8825;SDS011;4449;50.872;4.714;2022-09-12T09:24:27;3.23;;;3.03;;
8825;SDS011;4449;50.872;4.714;2022-09-12T09:26:59;2.70;;;2.40;;
8825;SDS011;4449;50.872;4.714;2022-09-12T09:29:31;4.93;;;2.70;;
8825;SDS011;4449;50.872;4.714;2022-09-12T09:32:06;2.70;;;2.60;;
8825;SDS011;4449;50.872;4.714;2022-09-12T09:34:38;2.80;;;2.60;;
8825;SDS011;4449;50.872;4.714;2022-09-12T09:37:08;2.50;;;2.40;;
8825;SDS011;4449;50.872;4.714;2022-09-12T09:39:44;3.00;;;2.90;;
8825;SDS011;4449;50.872;4.714;2022-09-12T09:42:16;4.77;;;2.67;;
8825;SDS011;4449;50.872;4.714;2022-09-12T09:44:46;2.90;;;2.70;;
8825;SDS011;4449;50.872;4.714;2022-09-12T09:47:15;2.80;;;2.60;;
8825;SDS011;4449;50.872;4.714;2022-09-12T09:49:44;2.30;;;2.20;;
8825;SDS011;4449;50.872;4.714;2022-09-12T09:52:13;2.23;;;2.13;;
8825;SDS011;4449;50.872;4.714;2022-09-12T09:54:43;2.03;;;1.93;;
8825;SDS011;4449;50.872;4.714;2022-09-12T10:00:02;2.17;;;2.13;;
8825;SDS011;4449;50.872;4.714;2022-09-12T10:02:59;2.47;;;2.37;;
8825;SDS011;4449;50.872;4.714;2022-09-12T10:05:29;2.50;;;2.30;;
8825;SDS011;4449;50.872;4.714;2022-09-12T10:07:57;2.57;;;2.40;;
8825;SDS011;4449;50.872;4.714;2022-09-12T10:10:25;2.67;;;2.50;;
8825;SDS011;4449;50.872;4.714;2022-09-12T10:13:05;4.83;;;2.30;;
8825;SDS011;4449;50.872;4.714;2022-09-12T10:15:33;2.10;;;2.00;;
8825;SDS011;4449;50.872;4.714;2022-09-12T10:18:04;2.10;;;2.10;;
8825;SDS011;4449;50.872;4.714;2022-09-12T10:20:32;2.20;;;2.00;;
8825;SDS011;4449;50.872;4.714;2022-09-12T10:23:01;2.30;;;2.20;;
8825;SDS011;4449;50.872;4.714;2022-09-12T10:25:30;2.87;;;2.30;;
8825;SDS011;4449;50.872;4.714;2022-09-12T10:27:58;2.07;;;2.03;;
8825;SDS011;4449;50.872;4.714;2022-09-12T10:30:27;2.20;;;2.10;;
8825;SDS011;4449;50.872;4.714;2022-09-12T10:32:56;2.97;;;2.50;;
8825;SDS011;4449;50.872;4.714;2022-09-12T10:35:27;2.60;;;2.40;;
8825;SDS011;4449;50.872;4.714;2022-09-12T10:37:55;2.30;;;2.20;;
8825;SDS011;4449;50.872;4.714;2022-09-12T10:40:25;2.00;;;2.00;;
8825;SDS011;4449;50.872;4.714;2022-09-12T10:42:54;2.30;;;2.10;;
8825;SDS011;4449;50.872;4.714;2022-09-12T10:45:24;2.50;;;2.30;;
8825;SDS011;4449;50.872;4.714;2022-09-12T10:47:53;2.20;;;2.03;;
8825;SDS011;4449;50.872;4.714;2022-09-12T10:50:24;2.27;;;2.17;;
8825;SDS011;4449;50.872;4.714;2022-09-12T11:51:17;2.13;;;2.10;;
8825;SDS011;4449;50.872;4.714;2022-09-12T11:53:47;1.77;;;1.70;;
8825;SDS011;4449;50.872;4.714;2022-09-12T11:56:19;1.87;;;1.87;;
8825;SDS011;4449;50.872;4.714;2022-09-12T11:58:57;1.60;;;1.60;;
8825;SDS011;4449;50.872;4.714;2022-09-12T12:01:27;5.83;;;1.70;;
8825;SDS011;4449;50.872;4.714;2022-09-12T12:03:59;1.63;;;1.53;;
8825;SDS011;4449;50.872;4.714;2022-09-12T12:06:32;1.23;;;1.23;;
8825;SDS011;4449;50.872;4.714;2022-09-12T12:09:00;2.10;;;1.60;;
8825;SDS011;4449;50.872;4.714;2022-09-12T12:11:31;1.83;;;1.73;;
8825;SDS011;4449;50.872;4.714;2022-09-12T12:14:01;1.80;;;1.70;;
8825;SDS011;4449;50.872;4.714;2022-09-12T12:16:31;1.80;;;1.70;;
8825;SDS011;4449;50.872;4.714;2022-09-12T12:19:00;1.53;;;1.53;;
8825;SDS011;4449;50.872;4.714;2022-09-12T12:21:37;1.50;;;1.40;;
8825;SDS011;4449;50.872;4.714;2022-09-12T12:24:12;2.43;;;1.80;;
8825;SDS011;4449;50.872;4.714;2022-09-12T12:26:42;1.83;;;1.73;;
8825;SDS011;4449;50.872;4.714;2022-09-12T12:29:10;1.40;;;1.30;;
8825;SDS011;4449;50.872;4.714;2022-09-12T12:34:21;5.60;;;1.70;;
8825;SDS011;4449;50.872;4.714;2022-09-12T12:36:55;1.73;;;1.73;;
8825;SDS011;4449;50.872;4.714;2022-09-12T12:44:59;1.90;;;1.80;;
8825;SDS011;4449;50.872;4.714;2022-09-12T12:47:29;1.77;;;1.67;;
8825;SDS011;4449;50.872;4.714;2022-09-12T12:49:59;1.43;;;1.43;;
8825;SDS011;4449;50.872;4.714;2022-09-12T12:52:30;4.07;;;1.70;;
8825;SDS011;4449;50.872;4.714;2022-09-12T12:54:58;1.47;;;1.47;;
8825;SDS011;4449;50.872;4.714;2022-09-12T12:57:29;1.50;;;1.50;;
8825;SDS011;4449;50.872;4.714;2022-09-12T12:59:57;1.37;;;1.37;;
8825;SDS011;4449;50.872;4.714;2022-09-12T13:02:27;2.10;;;1.40;;
8825;SDS011;4449;50.872;4.714;2022-09-12T13:04:56;1.40;;;1.40;;
8825;SDS011;4449;50.872;4.714;2022-09-12T13:07:33;1.47;;;1.47;;
8825;SDS011;4449;50.872;4.714;2022-09-12T13:10:02;1.80;;;1.50;;
8825;SDS011;4449;50.872;4.714;2022-09-12T13:12:31;1.23;;;1.23;;
8825;SDS011;4449;50.872;4.714;2022-09-12T13:15:00;1.50;;;1.50;;
8825;SDS011;4449;50.872;4.714;2022-09-12T13:17:29;1.87;;;1.77;;
8825;SDS011;4449;50.872;4.714;2022-09-12T13:20:13;4.77;;;1.80;;
8825;SDS011;4449;50.872;4.714;2022-09-12T13:22:43;1.60;;;1.60;;
8825;SDS011;4449;50.872;4.714;2022-09-12T13:25:25;1.60;;;1.60;;
8825;SDS011;4449;50.872;4.714;2022-09-12T13:28:00;2.37;;;1.70;;
8825;SDS011;4449;50.872;4.714;2022-09-12T13:30:29;1.40;;;1.40;;
8825;SDS011;4449;50.872;4.714;2022-09-12T13:33:00;2.40;;;2.30;;
8825;SDS011;4449;50.872;4.714;2022-09-12T13:35:35;1.60;;;1.50;;
8825;SDS011;4449;50.872;4.714;2022-09-12T13:38:09;3.27;;;2.10;;
8825;SDS011;4449;50.872;4.714;2022-09-12T13:40:44;2.47;;;1.57;;
8825;SDS011;4449;50.872;4.714;2022-09-12T13:43:13;1.43;;;1.43;;
8825;SDS011;4449;50.872;4.714;2022-09-12T13:45:42;1.53;;;1.53;;
8825;SDS011;4449;50.872;4.714;2022-09-12T13:48:12;1.43;;;1.43;;
8825;SDS011;4449;50.872;4.714;2022-09-12T13:50:41;1.60;;;1.50;;
8825;SDS011;4449;50.872;4.714;2022-09-12T13:53:14;1.57;;;1.57;;
8825;SDS011;4449;50.872;4.714;2022-09-12T13:55:44;1.70;;;1.60;;
8825;SDS011;4449;50.872;4.714;2022-09-12T13:58:19;1.80;;;1.70;;
8825;SDS011;4449;50.872;4.714;2022-09-12T14:00:58;1.50;;;1.50;;
8825;SDS011;4449;50.872;4.714;2022-09-12T14:03:27;1.87;;;1.77;;
8825;SDS011;4449;50.872;4.714;2022-09-12T14:06:12;1.70;;;1.40;;
8825;SDS011;4449;50.872;4.714;2022-09-12T14:08:42;3.70;;;1.37;;
8825;SDS011;4449;50.872;4.714;2022-09-12T14:11:14;1.67;;;1.67;;
8825;SDS011;4449;50.872;4.714;2022-09-12T14:13:44;2.57;;;1.47;;
8825;SDS011;4449;50.872;4.714;2022-09-12T14:16:15;1.43;;;1.43;;
8825;SDS011;4449;50.872;4.714;2022-09-12T14:18:43;1.50;;;1.50;;
8825;SDS011;4449;50.872;4.714;2022-09-12T14:21:17;2.03;;;1.90;;
8825;SDS011;4449;50.872;4.714;2022-09-12T14:23:48;1.57;;;1.50;;
8825;SDS011;4449;50.872;4.714;2022-09-12T14:26:16;1.50;;;1.50;;
8825;SDS011;4449;50.872;4.714;2022-09-12T14:28:44;1.50;;;1.50;;
8825;SDS011;4449;50.872;4.714;2022-09-12T14:31:19;1.90;;;1.60;;
8825;SDS011;4449;50.872;4.714;2022-09-12T14:33:48;2.43;;;1.90;;
8825;SDS011;4449;50.872;4.714;2022-09-12T14:36:18;5.83;;;1.80;;
8825;SDS011;4449;50.872;4.714;2022-09-12T14:38:49;1.93;;;1.83;;
8825;SDS011;4449;50.872;4.714;2022-09-12T14:41:21;1.60;;;1.60;;
8825;SDS011;4449;50.872;4.714;2022-09-12T14:43:51;1.63;;;1.63;;
8825;SDS011;4449;50.872;4.714;2022-09-12T14:46:21;1.63;;;1.53;;
8825;SDS011;4449;50.872;4.714;2022-09-12T14:48:49;6.40;;;1.30;;
8825;SDS011;4449;50.872;4.714;2022-09-12T14:51:19;1.80;;;1.70;;
8825;SDS011;4449;50.872;4.714;2022-09-12T14:53:49;2.67;;;1.60;;
8825;SDS011;4449;50.872;4.714;2022-09-12T14:56:18;1.30;;;1.30;;
8825;SDS011;4449;50.872;4.714;2022-09-12T14:58:47;1.60;;;1.50;;
8825;SDS011;4449;50.872;4.714;2022-09-12T15:01:22;2.73;;;1.53;;
8825;SDS011;4449;50.872;4.714;2022-09-12T15:03:51;4.50;;;1.70;;
8825;SDS011;4449;50.872;4.714;2022-09-12T15:06:21;1.40;;;1.40;;
8825;SDS011;4449;50.872;4.714;2022-09-12T15:08:52;2.20;;;1.57;;
8825;SDS011;4449;50.872;4.714;2022-09-12T15:11:20;1.60;;;1.30;;
8825;SDS011;4449;50.872;4.714;2022-09-12T15:13:48;1.47;;;1.40;;
8825;SDS011;4449;50.872;4.714;2022-09-12T15:16:16;1.33;;;1.33;;
8825;SDS011;4449;50.872;4.714;2022-09-12T15:18:44;1.30;;;1.30;;
8825;SDS011;4449;50.872;4.714;2022-09-12T15:21:12;1.63;;;1.63;;
8825;SDS011;4449;50.872;4.714;2022-09-12T15:23:43;1.43;;;1.37;;
8825;SDS011;4449;50.872;4.714;2022-09-12T15:26:14;1.83;;;1.30;;
8825;SDS011;4449;50.872;4.714;2022-09-12T15:28:42;1.00;;;1.00;;
8825;SDS011;4449;50.872;4.714;2022-09-12T15:31:11;1.43;;;1.20;;
8825;SDS011;4449;50.872;4.714;2022-09-12T15:33:40;1.30;;;1.30;;
8825;SDS011;4449;50.872;4.714;2022-09-12T15:36:11;1.57;;;1.47;;
8825;SDS011;4449;50.872;4.714;2022-09-12T15:38:40;1.10;;;1.10;;
8825;SDS011;4449;50.872;4.714;2022-09-12T15:41:09;1.43;;;1.43;;
8825;SDS011;4449;50.872;4.714;2022-09-12T15:43:39;1.40;;;1.40;;
8825;SDS011;4449;50.872;4.714;2022-09-12T15:46:08;1.50;;;1.40;;
8825;SDS011;4449;50.872;4.714;2022-09-12T15:48:36;2.00;;;1.30;;
8825;SDS011;4449;50.872;4.714;2022-09-12T15:51:04;1.33;;;1.33;;
8825;SDS011;4449;50.872;4.714;2022-09-12T15:53:32;1.10;;;1.10;;
8825;SDS011;4449;50.872;4.714;2022-09-12T15:56:00;1.37;;;1.30;;
8825;SDS011;4449;50.872;4.714;2022-09-12T15:58:28;1.27;;;1.20;;
8825;SDS011;4449;50.872;4.714;2022-09-12T16:00:57;1.37;;;1.37;;
8825;SDS011;4449;50.872;4.714;2022-09-12T16:03:27;1.60;;;1.23;;
8825;SDS011;4449;50.872;4.714;2022-09-12T16:05:55;2.17;;;1.40;;
8825;SDS011;4449;50.872;4.714;2022-09-12T16:08:23;2.67;;;1.60;;
8825;SDS011;4449;50.872;4.714;2022-09-12T16:10:52;6.60;;;1.30;;
8825;SDS011;4449;50.872;4.714;2022-09-12T16:13:20;1.37;;;1.20;;
8825;SDS011;4449;50.872;4.714;2022-09-12T16:15:48;1.70;;;1.40;;
8825;SDS011;4449;50.872;4.714;2022-09-12T16:18:17;1.07;;;1.07;;
8825;SDS011;4449;50.872;4.714;2022-09-12T16:20:45;1.33;;;1.33;;
8825;SDS011;4449;50.872;4.714;2022-09-12T16:23:13;1.57;;;1.47;;
8825;SDS011;4449;50.872;4.714;2022-09-12T16:25:40;1.30;;;1.30;;
8825;SDS011;4449;50.872;4.714;2022-09-12T16:28:08;1.70;;;1.60;;
8825;SDS011;4449;50.872;4.714;2022-09-12T16:30:36;4.63;;;1.37;;
8825;SDS011;4449;50.872;4.714;2022-09-12T16:33:04;2.43;;;1.40;;
8825;SDS011;4449;50.872;4.714;2022-09-12T16:35:33;6.43;;;1.57;;
8825;SDS011;4449;50.872;4.714;2022-09-12T16:38:00;1.50;;;1.43;;
8825;SDS011;4449;50.872;4.714;2022-09-12T16:40:28;2.87;;;1.90;;
8825;SDS011;4449;50.872;4.714;2022-09-12T16:42:56;5.07;;;1.50;;
8825;SDS011;4449;50.872;4.714;2022-09-12T16:45:23;4.87;;;1.63;;
8825;SDS011;4449;50.872;4.714;2022-09-12T16:47:51;5.20;;;1.30;;
8825;SDS011;4449;50.872;4.714;2022-09-12T16:50:19;1.23;;;1.20;;